Hamad International Airport

Airport
ICAO code: 
OTHH
IATA Code: 
DOH
Summary
ICAO Region: 
MID
Territory: 
Location: 
Doha, Qatar
Serving: 
Doha
Elevation: 
13 ft
Coordinates: 
Aerial View: 
25° 15' 38.141" N, 51° 36' 49.559" E
Metar
Observation
OTHH 271400Z 11007KT 7000 NSC 21/15 Q1015 NOSIG
Station
Doha International Airport
Date/Time
2022-01-27 14:00:00
Wind direction
110°
Wind speed
07 kts
Lowest cloud amount
nil significant cloud
Temperature
21°C
Dew point
15°C
Humidity
68%
QNH
1015 hPa
Weather condition
n/a

International airport serving Qatar.

Climatology

Hot Desert Climate (Köppen climate classification BWh) - Hot desert climates are typically found in the subtropics where there is unbroken sunshine for the whole year due to the stable descending air and high pressure, little or no precipitation. Maximum temperatures of 40°C to 45°C are not uncommon, particularly during the warmer months of the year.

Airport map: 
Aerial View: 

SKYbrary Partners:

Safety knowledge contributed by: